createdAt,value
2022-10-05T00:01:34.654Z,9.26
2022-10-05T00:04:20.265Z,9.24
2022-10-05T00:07:06.752Z,9.32
2022-10-05T00:09:35.475Z,9.43
2022-10-05T00:12:19.301Z,9.47
2022-10-05T00:14:50.654Z,9.50
2022-10-05T00:17:23.959Z,9.50
2022-10-05T00:19:54.083Z,9.50
2022-10-05T00:22:29.833Z,9.48
2022-10-05T00:25:11.131Z,9.49
2022-10-05T00:27:39.105Z,9.50
2022-10-05T00:30:21.610Z,9.51
2022-10-05T00:32:49.989Z,9.55
2022-10-05T00:35:20.318Z,9.55
2022-10-05T00:37:54.759Z,9.54
2022-10-05T00:40:41.570Z,9.52
2022-10-05T00:44:11.352Z,9.50
2022-10-05T00:47:01.717Z,9.57
2022-10-05T00:49:57.880Z,9.64
2022-10-05T00:52:51.836Z,9.65
2022-10-05T00:55:40.548Z,9.65
2022-10-05T00:58:37.546Z,9.67
2022-10-05T01:01:23.010Z,9.70
2022-10-05T01:04:12.869Z,9.71
2022-10-05T01:07:06.971Z,9.72
2022-10-05T01:10:05.180Z,9.80
2022-10-05T01:12:48.844Z,9.87
2022-10-05T01:15:39.725Z,9.95
2022-10-05T01:18:18.598Z,10.01
2022-10-05T01:21:02.615Z,10.04
2022-10-05T01:24:01.451Z,10.04
2022-10-05T01:27:01.300Z,9.96
2022-10-05T01:29:35.994Z,9.91
2022-10-05T01:32:36.904Z,9.91
2022-10-05T01:35:33.910Z,9.90
2022-10-05T01:38:20.438Z,9.84
2022-10-05T01:41:05.067Z,9.83
2022-10-05T01:43:49.185Z,9.83
2022-10-05T01:46:31.520Z,9.84
2022-10-05T01:49:28.190Z,9.85
2022-10-05T01:52:34.068Z,9.91
2022-10-05T01:55:19.976Z,9.93
2022-10-05T01:58:07.454Z,9.92
2022-10-05T02:00:51.787Z,9.89
2022-10-05T02:03:30.786Z,9.85
2022-10-05T02:06:12.272Z,9.89
2022-10-05T02:08:48.699Z,9.88
2022-10-05T02:11:18.940Z,9.85
2022-10-05T02:14:22.789Z,9.87
2022-10-05T02:16:54.918Z,9.94
2022-10-05T02:19:38.180Z,10.01
2022-10-05T02:22:21.679Z,10.07
2022-10-05T02:24:59.324Z,10.12
2022-10-05T02:27:36.826Z,10.16
2022-10-05T02:30:10.489Z,10.18
2022-10-05T02:32:53.093Z,10.17
2022-10-05T02:35:21.814Z,10.18
2022-10-05T02:38:16.989Z,10.16
2022-10-05T02:41:17.986Z,10.19
2022-10-05T02:43:59.564Z,10.24
2022-10-05T02:46:59.790Z,10.28
2022-10-05T02:50:31.645Z,10.32
2022-10-05T02:53:24.066Z,10.38
2022-10-05T02:56:32.266Z,10.38
2022-10-05T02:59:14.718Z,10.41
2022-10-05T03:01:55.622Z,10.44
2022-10-05T03:04:42.957Z,10.47
2022-10-05T03:07:32.790Z,10.48
2022-10-05T03:10:11.920Z,10.49
2022-10-05T03:13:13.304Z,10.49
2022-10-05T03:16:39.385Z,10.47
2022-10-05T03:20:00.398Z,10.46
2022-10-05T03:23:00.657Z,10.40
2022-10-05T03:25:47.242Z,10.42
2022-10-05T03:28:42.489Z,10.40
2022-10-05T03:31:45.238Z,10.40
2022-10-05T03:34:31.280Z,10.38
2022-10-05T03:37:10.442Z,10.37
2022-10-05T03:39:54.735Z,10.39
2022-10-05T03:43:16.418Z,10.39
2022-10-05T03:45:55.818Z,10.37
2022-10-05T03:48:35.833Z,10.37
2022-10-05T03:51:24.758Z,10.36
2022-10-05T03:54:22.894Z,10.35
2022-10-05T03:57:24.640Z,10.35
2022-10-05T04:00:04.979Z,10.34
2022-10-05T04:03:20.415Z,10.33
2022-10-05T04:05:57.975Z,10.32
2022-10-05T04:08:52.100Z,10.30
2022-10-05T04:11:36.926Z,10.29
2022-10-05T04:14:38.759Z,10.26
2022-10-05T04:17:17.467Z,10.22
2022-10-05T04:20:02.121Z,10.14
2022-10-05T04:22:36.378Z,9.88
2022-10-05T04:25:23.784Z,9.67
2022-10-05T04:28:17.598Z,9.60
2022-10-05T04:30:49.799Z,9.51
2022-10-05T04:33:17.727Z,9.38
2022-10-05T04:36:19.033Z,9.37
2022-10-05T04:39:11.184Z,9.35
2022-10-05T04:42:20.806Z,9.30
2022-10-05T04:45:05.845Z,9.32
2022-10-05T04:47:58.685Z,9.33
2022-10-05T04:51:08.542Z,9.27
2022-10-05T04:53:56.891Z,9.16
2022-10-05T04:56:41.919Z,9.05
2022-10-05T04:59:28.009Z,9.04
2022-10-05T05:02:22.396Z,9.08
2022-10-05T05:05:21.610Z,9.17
2022-10-05T05:08:27.550Z,9.14
2022-10-05T05:11:34.545Z,9.27
2022-10-05T05:14:23.782Z,9.43
2022-10-05T05:17:31.065Z,9.54
2022-10-05T05:20:19.907Z,9.62
2022-10-05T05:23:05.836Z,9.68
2022-10-05T05:25:43.019Z,9.74
2022-10-05T05:28:29.776Z,9.81
2022-10-05T05:31:19.461Z,9.86
2022-10-05T05:34:32.274Z,9.90
2022-10-05T05:37:22.265Z,9.95
2022-10-05T05:40:33.938Z,9.93
2022-10-05T05:43:14.981Z,9.88
2022-10-05T05:45:48.591Z,9.88
2022-10-05T05:48:31.046Z,9.99
2022-10-05T05:51:14.159Z,10.10
2022-10-05T05:53:50.187Z,10.21
2022-10-05T05:56:27.003Z,10.27
2022-10-05T05:59:11.320Z,10.40
2022-10-05T06:01:46.094Z,10.52
2022-10-05T06:04:22.557Z,10.63
2022-10-05T06:06:56.143Z,10.71
2022-10-05T06:09:36.369Z,10.85
2022-10-05T06:12:38.304Z,10.93
2022-10-05T06:15:32.423Z,11.01
2022-10-05T06:18:15.711Z,11.08
2022-10-05T06:20:57.347Z,11.14
2022-10-05T06:23:40.048Z,11.18
2022-10-05T06:26:36.360Z,11.25
2022-10-05T06:29:11.538Z,11.36
2022-10-05T06:32:05.528Z,11.42
2022-10-05T06:35:06.110Z,11.52
2022-10-05T06:38:11.086Z,11.58
2022-10-05T06:41:03.241Z,11.70
2022-10-05T06:43:58.788Z,11.78
2022-10-05T06:47:00.446Z,11.82
2022-10-05T06:50:16.286Z,11.89
2022-10-05T06:53:38.882Z,11.93
2022-10-05T06:56:29.462Z,11.95
2022-10-05T06:59:23.876Z,12.01
2022-10-05T07:02:10.492Z,12.07
2022-10-05T07:05:26.667Z,12.19
2022-10-05T07:08:11.981Z,12.36
2022-10-05T07:11:07.376Z,12.53
2022-10-05T07:14:12.898Z,12.74
2022-10-05T07:17:15.118Z,12.88
2022-10-05T07:20:33.753Z,12.89
2022-10-05T07:23:25.259Z,12.97
2022-10-05T07:26:20.360Z,13.05
2022-10-05T07:29:07.936Z,13.11
2022-10-05T07:31:58.229Z,13.19
2022-10-05T07:34:57.073Z,13.25
2022-10-05T07:37:57.248Z,13.36
2022-10-05T07:41:09.680Z,13.63
2022-10-05T07:44:02.475Z,13.68
2022-10-05T07:46:58.134Z,13.74
2022-10-05T07:49:53.049Z,13.77
2022-10-05T07:52:31.065Z,13.79
2022-10-05T07:55:35.592Z,13.74
2022-10-05T07:58:20.763Z,13.85
2022-10-05T08:01:13.899Z,13.77
2022-10-05T08:03:55.697Z,13.77
2022-10-05T08:06:52.290Z,13.78
2022-10-05T08:09:33.634Z,13.81
2022-10-05T08:12:50.962Z,13.87
2022-10-05T08:15:43.128Z,13.88
2022-10-05T08:19:16.450Z,13.95
2022-10-05T08:21:52.307Z,14.06
2022-10-05T08:24:22.737Z,14.14
2022-10-05T08:27:06.369Z,14.30
2022-10-05T08:29:46.222Z,14.33
2022-10-05T08:32:50.367Z,14.41
2022-10-05T08:35:55.759Z,14.41
2022-10-05T08:38:32.102Z,14.42
2022-10-05T08:41:42.792Z,14.53
2022-10-05T08:44:45.496Z,14.60
2022-10-05T08:48:18.340Z,14.69
2022-10-05T08:51:33.719Z,14.82
2022-10-05T08:54:58.588Z,14.92
2022-10-05T08:57:56.506Z,15.13
2022-10-05T09:00:32.727Z,15.26
2022-10-05T09:03:20.091Z,15.32
2022-10-05T09:06:27.014Z,15.50
2022-10-05T09:09:34.921Z,15.62
2022-10-05T09:12:38.346Z,15.84
2022-10-05T09:15:37.306Z,16.05
2022-10-05T09:18:57.784Z,16.13
2022-10-05T09:21:42.666Z,16.06
2022-10-05T09:24:27.667Z,16.01
2022-10-05T09:27:17.417Z,16.06
2022-10-05T09:30:20.387Z,16.06
2022-10-05T09:33:26.007Z,15.92
2022-10-05T09:36:27.468Z,15.84
2022-10-05T09:40:01.102Z,15.82
2022-10-05T09:42:47.241Z,15.91
2022-10-05T09:46:02.341Z,16.06
2022-10-05T09:48:56.821Z,16.10
2022-10-05T09:52:07.184Z,16.09
2022-10-05T09:55:08.968Z,16.10
2022-10-05T09:58:11.739Z,16.04
2022-10-05T10:01:29.095Z,16.07
2022-10-05T10:04:22.067Z,16.06
2022-10-05T10:07:06.846Z,16.11
2022-10-05T10:09:52.902Z,16.23
2022-10-05T10:12:51.887Z,16.30
2022-10-05T10:15:57.828Z,16.55
2022-10-05T10:18:51.833Z,16.68
2022-10-05T10:21:43.332Z,16.61
2022-10-05T10:24:35.455Z,16.57
2022-10-05T10:27:32.116Z,16.75
2022-10-05T10:30:31.055Z,16.98
2022-10-05T10:33:35.043Z,17.23
2022-10-05T10:36:18.964Z,17.36
2022-10-05T10:39:08.009Z,17.36
2022-10-05T10:42:14.792Z,17.39
2022-10-05T10:45:05.394Z,17.60
2022-10-05T10:48:01.232Z,17.72
2022-10-05T10:51:03.199Z,17.78
2022-10-05T10:53:43.910Z,17.75
2022-10-05T10:56:37.030Z,17.69
2022-10-05T10:59:55.925Z,17.78
2022-10-05T11:02:57.696Z,18.06
2022-10-05T11:06:04.712Z,18.03
2022-10-05T11:09:13.397Z,17.82
2022-10-05T11:12:10.630Z,17.73
2022-10-05T11:15:17.274Z,17.79
2022-10-05T11:18:45.814Z,18.03
2022-10-05T11:21:54.169Z,18.23
2022-10-05T11:24:48.493Z,18.22
2022-10-05T11:27:40.723Z,18.22
2022-10-05T11:30:47.458Z,18.11
2022-10-05T11:33:57.982Z,18.14
2022-10-05T11:36:59.898Z,18.01
2022-10-05T11:39:33.505Z,18.04
2022-10-05T11:42:33.448Z,18.10
2022-10-05T11:45:37.627Z,18.10
2022-10-05T11:48:37.069Z,18.15
2022-10-05T11:51:28.453Z,18.26
2022-10-05T11:54:08.937Z,18.35
2022-10-05T11:56:44.502Z,18.49
2022-10-05T11:59:30.294Z,18.48
2022-10-05T12:02:43.635Z,18.55
2022-10-05T12:05:41.655Z,18.50
2022-10-05T12:08:52.711Z,18.46
2022-10-05T12:12:15.575Z,18.41
2022-10-05T12:15:01.654Z,18.40
2022-10-05T12:17:48.478Z,18.52
2022-10-05T12:20:33.441Z,18.70
2022-10-05T12:23:19.815Z,18.87
2022-10-05T12:26:06.559Z,18.91
2022-10-05T12:28:46.896Z,18.83
2022-10-05T12:31:29.658Z,18.80
2022-10-05T12:34:20.208Z,18.79
2022-10-05T12:37:43.519Z,18.89
2022-10-05T12:40:35.997Z,18.87
2022-10-05T12:43:20.481Z,18.77
2022-10-05T12:46:20.999Z,18.81
2022-10-05T12:49:43.964Z,18.81
2022-10-05T12:52:56.015Z,18.80
2022-10-05T12:55:53.299Z,18.78
2022-10-05T12:58:52.880Z,18.77
2022-10-05T13:01:50.746Z,18.79
2022-10-05T13:04:40.359Z,18.56
2022-10-05T13:07:29.324Z,18.51
2022-10-05T13:10:19.973Z,18.55
2022-10-05T13:13:37.619Z,18.53
2022-10-05T13:16:17.882Z,18.47
2022-10-05T13:18:59.003Z,18.50
2022-10-05T13:22:00.174Z,18.55
2022-10-05T13:25:17.270Z,18.54
2022-10-05T13:28:00.780Z,18.56
2022-10-05T13:30:29.712Z,18.64
2022-10-05T13:33:18.671Z,18.64
2022-10-05T13:35:58.902Z,18.67
2022-10-05T13:39:15.271Z,18.70
2022-10-05T13:41:59.983Z,18.73
2022-10-05T13:44:50.326Z,18.82
2022-10-05T13:47:34.183Z,18.99
2022-10-05T13:50:28.564Z,19.04
2022-10-05T13:53:27.004Z,18.99
2022-10-05T13:56:17.158Z,18.95
2022-10-05T13:59:14.558Z,18.84
2022-10-05T14:02:24.523Z,18.63
2022-10-05T14:05:01.062Z,18.50
2022-10-05T14:07:47.559Z,18.50
2022-10-05T14:10:38.235Z,18.47
2022-10-05T14:13:44.222Z,18.44
2022-10-05T14:16:11.979Z,18.34
2022-10-05T14:18:57.473Z,18.39
2022-10-05T14:21:30.654Z,18.38
2022-10-05T14:24:43.150Z,18.34
2022-10-05T14:27:28.101Z,18.34
2022-10-05T14:30:07.947Z,18.33
2022-10-05T14:33:07.230Z,18.29
2022-10-05T14:35:56.041Z,18.36
2022-10-05T14:38:51.244Z,18.44
2022-10-05T14:41:24.842Z,18.42
2022-10-05T14:44:11.064Z,18.37
2022-10-05T14:46:52.072Z,18.32
2022-10-05T14:49:49.997Z,18.31
2022-10-05T14:52:32.490Z,18.31
2022-10-05T14:55:39.541Z,18.25
2022-10-05T14:58:58.739Z,18.23
2022-10-05T15:01:35.015Z,18.23
2022-10-05T15:04:42.990Z,18.19
2022-10-05T15:07:26.365Z,18.18
2022-10-05T15:10:40.421Z,18.18
2022-10-05T15:13:22.295Z,18.18
2022-10-05T15:16:05.786Z,18.23
2022-10-05T15:18:52.026Z,18.27
2022-10-05T15:21:42.348Z,18.25
2022-10-05T15:24:27.023Z,18.25
2022-10-05T15:27:05.950Z,18.27
2022-10-05T15:30:04.508Z,18.21
2022-10-05T15:32:55.457Z,18.16
2022-10-05T15:35:45.089Z,18.14
2022-10-05T15:38:25.856Z,18.09
2022-10-05T15:41:10.458Z,18.03
2022-10-05T15:44:18.119Z,17.94
2022-10-05T15:46:48.027Z,17.87
2022-10-05T15:49:42.223Z,17.76
2022-10-05T15:52:36.141Z,17.65
2022-10-05T15:55:35.163Z,17.53
2022-10-05T15:58:43.751Z,17.45
2022-10-05T16:01:40.261Z,17.33
2022-10-05T16:04:46.843Z,17.26
2022-10-05T16:07:46.856Z,17.03
2022-10-05T16:10:24.136Z,17.01
2022-10-05T16:13:27.903Z,16.93
2022-10-05T16:16:16.230Z,16.99
2022-10-05T16:19:20.978Z,16.94
2022-10-05T16:22:43.454Z,16.85
2022-10-05T16:25:25.609Z,16.72
2022-10-05T16:28:45.070Z,16.67
2022-10-05T16:31:47.023Z,16.60
2022-10-05T16:34:58.517Z,16.49
2022-10-05T16:38:14.266Z,16.39
2022-10-05T16:41:29.489Z,16.30
2022-10-05T16:44:14.178Z,16.19
2022-10-05T16:47:08.689Z,16.10
2022-10-05T16:50:04.783Z,16.00
2022-10-05T16:52:33.954Z,15.93
2022-10-05T16:55:12.155Z,15.87
2022-10-05T16:57:52.565Z,15.84
2022-10-05T17:01:04.494Z,15.77
2022-10-05T17:03:57.231Z,15.70
2022-10-05T17:07:12.758Z,15.66
2022-10-05T17:10:13.476Z,15.67
2022-10-05T17:13:00.581Z,15.57
2022-10-05T17:16:05.705Z,15.50
2022-10-05T17:19:15.183Z,15.42
2022-10-05T17:22:22.691Z,15.36
2022-10-05T17:25:18.331Z,15.37
2022-10-05T17:28:16.365Z,15.34
2022-10-05T17:30:53.963Z,15.28
2022-10-05T17:33:30.327Z,15.33
2022-10-05T17:36:12.245Z,15.31
2022-10-05T17:39:20.104Z,15.25
2022-10-05T17:41:48.579Z,15.26
2022-10-05T17:44:24.752Z,15.19
2022-10-05T17:47:00.193Z,15.12
2022-10-05T17:50:16.110Z,14.98
2022-10-05T17:53:03.553Z,14.97
2022-10-05T17:55:44.044Z,14.88
2022-10-05T17:58:24.579Z,14.84
2022-10-05T18:00:58.433Z,14.76
2022-10-05T18:03:50.094Z,14.73
2022-10-05T18:06:37.788Z,14.68
2022-10-05T18:09:20.373Z,14.62
2022-10-05T18:12:16.141Z,14.56
2022-10-05T18:15:06.218Z,14.49
2022-10-05T18:17:58.642Z,14.51
2022-10-05T18:20:32.533Z,14.51
2022-10-05T18:23:01.475Z,14.49
2022-10-05T18:25:43.600Z,14.46
2022-10-05T18:28:28.740Z,14.40
2022-10-05T18:31:22.067Z,14.41
2022-10-05T18:34:31.246Z,14.35
2022-10-05T18:37:18.256Z,14.35
2022-10-05T18:40:17.080Z,14.39
2022-10-05T18:43:18.355Z,14.39
2022-10-05T18:46:22.358Z,14.35
2022-10-05T18:49:16.428Z,14.29
2022-10-05T18:52:00.376Z,14.27
2022-10-05T18:54:57.241Z,14.22
2022-10-05T18:57:43.653Z,14.22
2022-10-05T19:00:20.085Z,14.24
2022-10-05T19:02:57.694Z,14.21
2022-10-05T19:05:48.490Z,14.17
2022-10-05T19:08:59.798Z,14.12
2022-10-05T19:12:04.025Z,14.13
2022-10-05T19:14:45.336Z,14.02
2022-10-05T19:18:11.163Z,14.05
2022-10-05T19:21:13.946Z,14.06
2022-10-05T19:24:33.678Z,14.08
2022-10-05T19:27:46.714Z,14.05
2022-10-05T19:30:29.988Z,14.03
2022-10-05T19:33:31.163Z,13.96
2022-10-05T19:36:40.062Z,14.01
2022-10-05T19:39:31.178Z,14.05
2022-10-05T19:42:46.020Z,14.00
2022-10-05T19:45:27.353Z,13.90
2022-10-05T19:48:26.957Z,13.97
2022-10-05T19:51:00.940Z,13.98
2022-10-05T19:53:37.022Z,13.96
2022-10-05T19:56:34.161Z,13.97
2022-10-05T19:59:17.543Z,14.03
2022-10-05T20:01:55.850Z,14.03
2022-10-05T20:04:46.134Z,13.99
2022-10-05T20:07:20.711Z,13.97
2022-10-05T20:10:17.555Z,13.98
2022-10-05T20:12:56.030Z,13.96
2022-10-05T20:15:48.473Z,13.96
2022-10-05T20:19:01.512Z,13.95
2022-10-05T20:21:46.302Z,13.91
2022-10-05T20:24:25.726Z,13.86
2022-10-05T20:27:06.287Z,13.83
2022-10-05T20:29:38.639Z,13.81
2022-10-05T20:32:13.017Z,13.81
2022-10-05T20:34:43.380Z,13.79
2022-10-05T20:37:17.460Z,13.77
2022-10-05T20:39:45.394Z,13.73
2022-10-05T20:42:14.142Z,13.69
2022-10-05T20:44:41.897Z,13.65
2022-10-05T20:47:10.690Z,13.57
2022-10-05T20:49:41.199Z,13.52
2022-10-05T20:52:11.268Z,13.43
2022-10-05T20:54:39.460Z,13.33
2022-10-05T20:57:09.138Z,13.29
2022-10-05T20:59:37.345Z,13.26
2022-10-05T21:02:05.814Z,13.25
2022-10-05T21:04:40.895Z,13.28
2022-10-05T21:07:09.638Z,13.28
2022-10-05T21:09:39.274Z,13.29
2022-10-05T21:12:06.946Z,13.30
2022-10-05T21:14:36.426Z,13.30
2022-10-05T21:17:07.868Z,13.34
2022-10-05T21:19:39.453Z,13.32
2022-10-05T21:22:09.952Z,13.28
2022-10-05T21:24:40.766Z,13.23
2022-10-05T21:27:10.137Z,13.20
2022-10-05T21:29:40.917Z,13.16
2022-10-05T21:32:11.710Z,13.17
2022-10-05T21:34:41.439Z,13.16
2022-10-05T21:37:09.210Z,13.12
2022-10-05T21:39:36.903Z,13.07
2022-10-05T21:42:04.841Z,13.07
2022-10-05T21:44:32.546Z,13.07
2022-10-05T21:47:00.399Z,13.03
2022-10-05T21:49:28.621Z,13.02
2022-10-05T21:51:56.709Z,12.93
2022-10-05T21:54:24.905Z,12.89
2022-10-05T21:56:55.510Z,12.86
2022-10-05T21:59:29.195Z,12.92
2022-10-05T22:01:57.319Z,12.96
2022-10-05T22:04:25.126Z,12.99
2022-10-05T22:06:55.406Z,12.91
2022-10-05T22:09:23.391Z,12.89
2022-10-05T22:11:51.368Z,12.88
2022-10-05T22:14:19.151Z,12.87
2022-10-05T22:16:47.219Z,12.86
2022-10-05T22:19:19.087Z,12.89
2022-10-05T22:21:46.963Z,12.93
2022-10-05T22:24:14.684Z,12.88
2022-10-05T22:26:46.503Z,12.79
2022-10-05T22:29:16.863Z,12.67
2022-10-05T22:31:48.690Z,12.65
2022-10-05T22:34:18.144Z,12.62
2022-10-05T22:36:47.364Z,12.56
2022-10-05T22:39:17.040Z,12.58
2022-10-05T22:41:44.824Z,12.59
2022-10-05T22:44:12.662Z,12.54
2022-10-05T22:46:40.426Z,12.50
2022-10-05T22:49:08.784Z,12.47
2022-10-05T22:51:36.592Z,12.42
2022-10-05T22:54:04.679Z,12.36
2022-10-05T22:56:32.372Z,12.34
2022-10-05T22:59:00.026Z,12.41
2022-10-05T23:01:27.747Z,12.42
2022-10-05T23:03:57.176Z,12.41
2022-10-05T23:06:27.824Z,12.38
2022-10-05T23:08:55.560Z,12.38
2022-10-05T23:11:28.782Z,12.44
2022-10-05T23:13:57.329Z,12.53
2022-10-05T23:16:28.111Z,12.65
2022-10-05T23:18:56.941Z,12.71
2022-10-05T23:21:28.843Z,12.69
2022-10-05T23:23:56.562Z,12.74
2022-10-05T23:26:25.803Z,12.73
2022-10-05T23:28:54.120Z,12.66
2022-10-05T23:31:25.666Z,12.63
2022-10-05T23:33:53.854Z,12.65
2022-10-05T23:36:25.333Z,12.64
2022-10-05T23:38:53.916Z,12.67
2022-10-05T23:41:22.026Z,12.69
2022-10-05T23:43:49.851Z,12.70
2022-10-05T23:46:17.992Z,12.72
2022-10-05T23:48:45.803Z,12.73
2022-10-05T23:51:14.442Z,12.71
2022-10-05T23:53:42.667Z,12.73
2022-10-05T23:56:10.543Z,12.73
2022-10-05T23:58:38.990Z,12.75
